Temperatura máxima Desde: 24-06-2018 12:00 Hasta: 18:59 Aviso por: Temperatura máxima Nivel: Amarillo info button
 

Informes METAR

 

LEZL - Sevilla, Spain
Distancia de la estación: ENE 8km
Actualización: 24/06/2018 01:00
Despejado
Despejado
 Viento de SO
Viento: SO 7 km/h
Temperatura: 25°C
Rocío: 14°C
Humedad: 51%
Barómetro: 1014 hPa
Resumen: Despejado
Visibilidad: mayor de 10 km
2018/06/23 23:00 LEZL 232300Z 22004KT 200V260 CAVOK 25/14 Q1014 NOSIG
LEMO - Morón, Spain
Distancia de la estación: SE 43km
Actualización: 24/06/2018 01:00
Despejado
Despejado
 Viento de SSO
Viento: SSO 7 km/h
Temperatura: 21°C
Rocío: 16°C
Humedad: 73%
Barómetro: 1015 hPa
Resumen: Despejado
Visibilidad: mayor de 10 km
2018/06/23 23:00 LEMO 232300Z 21004KT CAVOK 21/16 Q1015 NOSIG
LEJR - Jeréz, Spain
Distancia de la estación: S 71km
Actualización: 24/06/2018 01:00
Despejado
Despejado
 Viento de NNE
Viento: NNE 7 km/h
Temperatura: 19°C
Rocío: 16°C
Humedad: 83%
Barómetro: 1014 hPa
Nubes: Despejado
Visibilidad: 10 km
2018/06/23 23:00 LEJR 232300Z AUTO 02004KT 310V050 9999 NCD 19/16 Q1014
 
LERT - Rota, Spain
Distancia de la estación: SSO 89km
Actualización: 24/06/2018 01:00
Despejado
Despejado
 Viento de calm
Viento: Calma
Temperatura: 21°C
Rocío: 17°C
Humedad: 78%
Barómetro: 1014 hPa
Resumen: Despejado
Visibilidad: mayor de 10 km
2018/06/23 23:00 LERT 232300Z 00000KT CAVOK 21/17 Q1014 NOSIG
LEMG - Málaga, Spain
Distancia de la estación: ESE 157km
Actualización: 24/06/2018 01:00
Poco nuboso
Poco nuboso
 Viento de O
Viento: O 9 km/h
Temperatura: 23°C
Rocío: 15°C
Humedad: 61%
Barómetro: 1016 hPa
Nubes: Poco nuboso
Visibilidad: 10 km
Detalles de las nubes: Poco nuboso 305 m
2018/06/23 23:00 LEMG 232300Z 26005KT 9999 FEW010 23/15 Q1016 NOSIG
LEBA - Córdoba, Spain
Distancia de la estación: ENE 115km
Actualización: 24/06/2018 01:00
Despejado
Despejado
 Viento de SO
Viento: SO 7 km/h
Temperatura: 26°C
Rocío: 10°C
Humedad: 37%
Barómetro: 1014 hPa
Nubes: Despejado
Visibilidad: 10 km
2018/06/23 23:00 LEBA 232300Z AUTO 22004KT 9999 NCD 26/10 Q1014
 
LEGR - Granada, Spain
Distancia de la estación: E 198km
Actualización: 24/06/2018 01:00
Despejado
Despejado
 Viento de calm
Viento: Calma
Temperatura: 24°C
Rocío: 11°C
Humedad: 44%
Barómetro: 1017 hPa
Nubes: Despejado
Visibilidad: 10 km
2018/06/23 23:00 LEGR 232300Z AUTO 00000KT 9999 NCD 24/11 Q1017
LEAM - Almería, Spain
Distancia de la estación: E 326km
Actualización: 24/06/2018 01:00
Despejado
Despejado
 Viento de NO
Viento: NO 20 km/h
Temperatura: 27°C
índice de calor: 27°C
Rocío: 13°C
Humedad: 42%
Barómetro: 1015 hPa
Nubes: Despejado
Visibilidad: 10 km
2018/06/23 23:00 LEAM 232300Z AUTO 32011KT 9999 NCD 27/13 Q1015
LEMD - Madrid/Barajas, Spain
Distancia de la estación: NNE 402km
Actualización: 24/06/2018 01:00
Despejado
Despejado
 Viento de NNO
Viento: NNO 9 km/h
Temperatura: 27°C
Rocío: 12°C
Humedad: 39%
Barómetro: 1017 hPa
Resumen: Despejado
Visibilidad: mayor de 10 km
2018/06/23 23:00 LEMD 232300Z 33005KT 290V350 CAVOK 27/12 Q1017 NOSIG
 
LEVD - Valladolid, Spain
Distancia de la estación: N 492km
Actualización: 23/06/2018 21:30
NOT Current
Despejado
Despejado
 Viento de NE
Viento: NE 13 km/h
Temperatura: 22°C
Rocío: 14°C
Humedad: 61%
Barómetro: 1019 hPa
Resumen: Despejado
Visibilidad: mayor de 10 km
2018/06/23 19:30 LEVD 231930Z 05007KT CAVOK 22/14 Q1019
LEBL - Barcelona, Spain
Distancia de la estación: NE 816km
Actualización: 24/06/2018 01:00
Poco nuboso
Poco nuboso
 Viento de ONO
Viento: ONO 11 km/h
Temperatura: 22°C
Rocío: 13°C
Humedad: 57%
Barómetro: 1018 hPa
Nubes: Poco nuboso
Visibilidad: 10 km
Detalles de las nubes: Poco nuboso 914 m
2018/06/23 23:00 LEBL 232300Z 30006KT 9999 FEW030 22/13 Q1018 NOSIG
LEVC - Valencia, Spain
Distancia de la estación: ENE 535km
Actualización: 24/06/2018 01:00
Poco nuboso
Poco nuboso
 Viento de ENE
Viento: ENE 7 km/h
Temperatura: 24°C
Rocío: 20°C
Humedad: 78%
Barómetro: 1018 hPa
Nubes: Poco nuboso
Visibilidad: 10 km
Detalles de las nubes: Poco nuboso 610 m
2018/06/23 23:00 LEVC 232300Z 07004KT 030V110 9999 FEW020 24/20 Q1018 NOSIG